createdAt,value
2019-02-20T00:00:20.536Z,0.53
2019-02-20T00:02:51.765Z,0.49
2019-02-20T00:05:22.275Z,0.45
2019-02-20T00:07:52.559Z,0.39
2019-02-20T00:10:23.539Z,0.37
2019-02-20T00:12:54.165Z,0.31
2019-02-20T00:15:24.653Z,0.28
2019-02-20T00:17:55.221Z,0.22
2019-02-20T00:20:25.434Z,0.23
2019-02-20T00:22:55.861Z,0.24
2019-02-20T00:25:26.191Z,0.22
2019-02-20T00:27:56.694Z,0.21
2019-02-20T00:30:27.172Z,0.21
2019-02-20T00:32:58.149Z,0.21
2019-02-20T00:35:28.847Z,0.17
2019-02-20T00:37:59.174Z,0.16
2019-02-20T00:40:29.790Z,0.15
2019-02-20T00:43:00.451Z,0.09
2019-02-20T00:45:40.136Z,0.07
2019-02-20T00:48:39.327Z,0.08
2019-02-20T00:51:19.168Z,0.11
2019-02-20T00:53:56.206Z,0.08
2019-02-20T00:56:26.578Z,0.12
2019-02-20T00:58:57.188Z,0.21
2019-02-20T01:01:27.495Z,0.27
2019-02-20T01:03:57.627Z,0.34
2019-02-20T01:06:28.028Z,0.32
2019-02-20T01:08:58.597Z,0.34
2019-02-20T01:11:28.690Z,0.27
2019-02-20T01:13:59.391Z,0.21
2019-02-20T01:16:29.696Z,0.20
2019-02-20T01:19:00.551Z,0.14
2019-02-20T01:21:31.028Z,0.11
2019-02-20T01:24:02.077Z,0.08
2019-02-20T01:26:32.539Z,0.18
2019-02-20T01:29:02.878Z,0.35
2019-02-20T01:31:33.097Z,0.53
2019-02-20T01:34:03.525Z,0.71
2019-02-20T01:36:33.836Z,0.85
2019-02-20T01:39:05.532Z,0.99
2019-02-20T01:41:35.858Z,1.10
2019-02-20T01:44:06.261Z,1.19
2019-02-20T01:46:36.705Z,1.24
2019-02-20T01:49:06.811Z,1.27
2019-02-20T01:51:37.145Z,1.33
2019-02-20T01:54:07.666Z,1.33
2019-02-20T01:56:38.756Z,1.37
2019-02-20T01:59:09.019Z,1.37
2019-02-20T02:01:39.534Z,1.41
2019-02-20T02:04:10.324Z,1.43
2019-02-20T02:06:40.874Z,1.48
2019-02-20T02:09:11.159Z,1.49
2019-02-20T02:11:41.628Z,1.55
2019-02-20T02:14:11.813Z,1.60
2019-02-20T02:16:42.132Z,1.61
2019-02-20T02:19:12.221Z,1.61
2019-02-20T02:21:42.550Z,1.61
2019-02-20T02:24:12.909Z,1.65
2019-02-20T02:26:43.368Z,1.66
2019-02-20T02:29:13.613Z,1.67
2019-02-20T02:31:43.931Z,1.65
2019-02-20T02:34:14.083Z,1.67
2019-02-20T02:36:44.857Z,1.72
2019-02-20T02:39:15.750Z,1.72
2019-02-20T02:41:46.127Z,1.71
2019-02-20T02:44:16.328Z,1.74
2019-02-20T02:46:47.037Z,1.79
2019-02-20T02:49:17.271Z,1.77
2019-02-20T02:51:47.699Z,1.76
2019-02-20T02:54:17.772Z,1.77
2019-02-20T02:56:48.217Z,1.76
2019-02-20T02:59:18.338Z,1.80
2019-02-20T03:01:48.547Z,1.80
2019-02-20T03:04:18.770Z,1.82
2019-02-20T03:06:49.338Z,1.84
2019-02-20T03:09:19.361Z,1.84
2019-02-20T03:11:49.681Z,1.83
2019-02-20T03:14:20.932Z,1.83
2019-02-20T03:16:51.007Z,1.86
2019-02-20T03:19:21.299Z,1.86
2019-02-20T03:21:51.551Z,1.88
2019-02-20T03:24:21.691Z,1.88
2019-02-20T03:26:52.267Z,1.93
2019-02-20T03:29:22.741Z,1.94
2019-02-20T03:31:53.430Z,1.97
2019-02-20T03:34:24.094Z,2.03
2019-02-20T03:36:54.638Z,2.03
2019-02-20T03:39:25.354Z,2.05
2019-02-20T03:41:56.105Z,2.08
2019-02-20T03:44:26.821Z,2.12
2019-02-20T03:46:57.335Z,2.13
2019-02-20T03:49:28.038Z,2.13
2019-02-20T03:51:58.498Z,2.16
2019-02-20T03:54:29.504Z,2.19
2019-02-20T03:57:01.027Z,2.25
2019-02-20T03:59:32.158Z,2.26
2019-02-20T04:02:02.403Z,2.29
2019-02-20T04:04:32.968Z,2.30
2019-02-20T04:07:04.223Z,2.34
2019-02-20T04:09:35.117Z,2.35
2019-02-20T04:12:06.166Z,2.39
2019-02-20T04:14:36.365Z,2.39
2019-02-20T04:17:06.571Z,2.43
2019-02-20T04:19:37.575Z,2.46
2019-02-20T04:22:08.476Z,2.47
2019-02-20T04:24:38.963Z,2.48
2019-02-20T04:27:09.593Z,2.46
2019-02-20T04:29:40.230Z,2.47
2019-02-20T04:32:10.939Z,2.48
2019-02-20T04:34:41.468Z,2.52
2019-02-20T04:37:12.474Z,2.59
2019-02-20T04:39:43.277Z,2.61
2019-02-20T04:42:13.727Z,2.61
2019-02-20T04:44:44.169Z,2.64
2019-02-20T04:47:18.124Z,2.62
2019-02-20T04:49:48.622Z,2.62
2019-02-20T04:52:19.149Z,2.63
2019-02-20T04:54:49.855Z,2.69
2019-02-20T04:57:20.327Z,2.70
2019-02-20T04:59:50.997Z,2.74
2019-02-20T05:02:22.825Z,2.75
2019-02-20T05:04:54.025Z,2.78
2019-02-20T05:07:24.820Z,2.77
2019-02-20T05:09:57.757Z,2.81
2019-02-20T05:12:28.399Z,2.89
2019-02-20T05:14:59.223Z,2.89
2019-02-20T05:17:30.619Z,2.88
2019-02-20T05:20:01.201Z,2.88
2019-02-20T05:22:32.276Z,2.92
2019-02-20T05:25:03.624Z,2.94
2019-02-20T05:27:34.734Z,2.97
2019-02-20T05:30:11.208Z,2.96
2019-02-20T05:32:42.685Z,2.97
2019-02-20T05:35:17.219Z,2.99
2019-02-20T05:37:51.414Z,3.04
2019-02-20T05:40:23.631Z,3.06
2019-02-20T05:42:54.520Z,3.05
2019-02-20T05:45:26.295Z,3.06
2019-02-20T05:47:57.489Z,3.05
2019-02-20T05:50:27.889Z,3.00
2019-02-20T05:52:58.678Z,3.04
2019-02-20T05:55:29.096Z,3.02
2019-02-20T05:58:01.322Z,3.04
2019-02-20T06:00:33.275Z,3.03
2019-02-20T06:03:05.119Z,3.05
2019-02-20T06:05:36.441Z,3.07
2019-02-20T06:08:09.596Z,3.08
2019-02-20T06:10:40.120Z,3.08
2019-02-20T06:13:11.406Z,3.08
2019-02-20T06:15:43.199Z,3.14
2019-02-20T06:18:15.540Z,3.21
2019-02-20T06:20:47.440Z,3.27
2019-02-20T06:23:19.198Z,3.27
2019-02-20T06:25:50.179Z,3.29
2019-02-20T06:28:21.437Z,3.32
2019-02-20T06:30:53.662Z,3.30
2019-02-20T06:33:24.402Z,3.28
2019-02-20T06:35:55.921Z,3.34
2019-02-20T06:38:27.355Z,3.37
2019-02-20T06:40:58.575Z,3.41
2019-02-20T06:43:29.343Z,3.41
2019-02-20T06:46:00.592Z,3.40
2019-02-20T06:48:32.076Z,3.43
2019-02-20T06:51:03.336Z,3.48
2019-02-20T06:53:35.689Z,3.49
2019-02-20T06:56:06.826Z,3.48
2019-02-20T06:58:38.739Z,3.45
2019-02-20T07:01:09.918Z,3.44
2019-02-20T07:03:40.934Z,3.46
2019-02-20T07:06:42.990Z,3.47
2019-02-20T07:10:00.550Z,3.48
2019-02-20T07:12:53.600Z,3.52
2019-02-20T07:16:09.109Z,3.51
2019-02-20T07:19:08.069Z,3.59
2019-02-20T07:22:20.915Z,3.58
2019-02-20T07:25:15.350Z,3.60
2019-02-20T12:46:37.644Z,5.62
2019-02-20T12:49:08.530Z,5.55
2019-02-20T12:51:39.233Z,5.59
2019-02-20T12:54:10.133Z,5.59
2019-02-20T12:56:43.983Z,5.55
2019-02-20T12:59:14.263Z,5.47
2019-02-20T13:01:44.698Z,5.41
2019-02-20T13:04:15.417Z,5.24
2019-02-20T13:06:45.987Z,5.11
2019-02-20T13:09:18.408Z,5.02
2019-02-20T13:11:49.118Z,4.97
2019-02-20T13:14:20.135Z,4.94
2019-02-20T13:16:51.587Z,4.86
2019-02-20T13:19:22.794Z,4.79
2019-02-20T13:21:53.478Z,4.78
2019-02-20T13:24:24.392Z,4.80
2019-02-20T13:26:55.736Z,4.83
2019-02-20T13:29:26.948Z,4.88
2019-02-20T13:31:58.923Z,4.87
2019-02-20T13:34:29.853Z,4.86
2019-02-20T13:37:01.213Z,4.83
2019-02-20T13:39:32.002Z,4.78
2019-02-20T13:42:03.239Z,4.78
2019-02-20T13:44:34.447Z,4.78
2019-02-20T13:47:05.331Z,4.79
2019-02-20T13:49:35.855Z,4.78
2019-02-20T13:52:06.449Z,4.84
2019-02-20T13:54:37.732Z,4.86
2019-02-20T13:57:08.396Z,4.86
2019-02-20T13:59:41.067Z,4.85
2019-02-20T14:02:11.689Z,4.83
2019-02-20T14:04:42.484Z,4.83
2019-02-20T14:07:12.865Z,4.83
2019-02-20T14:09:45.547Z,4.83
2019-02-20T14:12:16.525Z,4.85
2019-02-20T14:14:47.263Z,4.88
2019-02-20T14:17:26.434Z,4.88
2019-02-20T14:19:51.211Z,4.88
2019-02-20T14:22:22.173Z,4.89
2019-02-20T14:24:52.964Z,4.85
2019-02-20T14:27:23.975Z,4.79
2019-02-20T14:29:54.593Z,4.77
2019-02-20T14:32:26.214Z,4.76
2019-02-20T14:34:57.023Z,4.77
2019-02-20T14:37:27.523Z,4.80
2019-02-20T14:39:58.621Z,4.81
2019-02-20T14:42:29.510Z,4.77
2019-02-20T14:45:00.158Z,4.77
2019-02-20T14:47:30.921Z,4.72
2019-02-20T14:50:01.859Z,4.71
2019-02-20T14:52:32.739Z,4.70
2019-02-20T14:55:04.030Z,4.68
2019-02-20T14:57:34.529Z,4.66
2019-02-20T15:00:06.053Z,4.64
2019-02-20T15:02:36.671Z,4.63
2019-02-20T15:05:06.917Z,4.62
2019-02-20T15:07:38.453Z,4.58
2019-02-20T15:10:10.127Z,4.57
2019-02-20T15:12:40.731Z,4.59
2019-02-20T15:15:11.466Z,4.52
2019-02-20T15:17:43.212Z,4.54
2019-02-20T15:20:14.267Z,4.54
2019-02-20T15:22:46.417Z,4.52
2019-02-20T15:25:18.259Z,4.57
2019-02-20T15:27:49.289Z,4.57
2019-02-20T15:30:20.193Z,4.54
2019-02-20T15:32:51.077Z,4.55
2019-02-20T15:35:21.660Z,4.59
2019-02-20T15:37:52.172Z,4.57
2019-02-20T15:40:23.476Z,4.63
2019-02-20T15:42:54.746Z,4.68
2019-02-20T15:45:25.273Z,4.68
2019-02-20T15:47:56.847Z,4.65
2019-02-20T15:50:28.478Z,4.62
2019-02-20T15:52:59.732Z,4.64
2019-02-20T15:55:30.691Z,4.65
2019-02-20T15:58:01.380Z,4.69
2019-02-20T16:00:32.160Z,4.67
2019-02-20T16:03:02.671Z,4.66
2019-02-20T16:05:33.125Z,4.65
2019-02-20T16:08:04.071Z,4.62
2019-02-20T16:10:34.934Z,4.62
2019-02-20T16:13:06.554Z,4.60
2019-02-20T16:15:37.354Z,4.57
2019-02-20T16:18:10.276Z,4.54
2019-02-20T16:20:40.865Z,4.54
2019-02-20T16:23:11.208Z,4.57
2019-02-20T16:25:42.134Z,4.56
2019-02-20T16:28:12.789Z,4.50
2019-02-20T16:30:44.457Z,4.48
2019-02-20T16:33:15.904Z,4.49
2019-02-20T16:35:48.265Z,4.52
2019-02-20T16:38:18.910Z,4.54
2019-02-20T16:40:49.621Z,4.53
2019-02-20T16:43:20.692Z,4.56
2019-02-20T16:45:52.031Z,4.54
2019-02-20T16:48:22.626Z,4.50
2019-02-20T16:50:53.135Z,4.51
2019-02-20T16:53:23.662Z,4.49
2019-02-20T16:55:55.723Z,4.46
2019-02-20T16:58:26.750Z,4.50
2019-02-20T17:00:57.155Z,4.58
2019-02-20T17:03:28.243Z,4.64
2019-02-20T17:05:58.513Z,4.66
2019-02-20T17:08:29.175Z,4.67
2019-02-20T17:10:59.820Z,4.67
2019-02-20T17:13:30.326Z,4.66
2019-02-20T17:16:00.861Z,4.61
2019-02-20T17:18:31.530Z,4.54
2019-02-20T17:21:02.428Z,4.56
2019-02-20T17:23:32.549Z,4.61
2019-02-20T17:26:03.503Z,4.52
2019-02-20T17:28:34.086Z,4.40
2019-02-20T17:31:04.692Z,4.29
2019-02-20T17:33:35.099Z,4.22
2019-02-20T17:36:05.429Z,4.18
2019-02-20T17:38:36.286Z,4.12
2019-02-20T17:41:07.160Z,4.08
2019-02-20T17:43:37.350Z,4.07
2019-02-20T17:46:07.813Z,4.14
2019-02-20T17:48:38.432Z,4.11
2019-02-20T17:51:08.936Z,4.06
2019-02-20T17:53:40.831Z,4.04
2019-02-20T17:56:11.342Z,4.06
2019-02-20T17:58:45.098Z,4.04
2019-02-20T18:01:18.189Z,4.06
2019-02-20T18:03:49.161Z,4.08
2019-02-20T18:06:19.808Z,4.07
2019-02-20T18:08:54.232Z,4.10
2019-02-20T18:11:24.764Z,4.15
2019-02-20T18:13:55.538Z,4.18
2019-02-20T18:16:25.909Z,4.16
2019-02-20T18:18:56.472Z,4.15
2019-02-20T18:21:26.793Z,4.19
2019-02-20T18:24:00.574Z,4.17
2019-02-20T18:26:31.402Z,4.18
2019-02-20T18:29:07.804Z,4.16
2019-02-20T18:31:38.508Z,4.19
2019-02-20T18:34:09.792Z,4.22
2019-02-20T18:36:40.816Z,4.25
2019-02-20T18:39:11.458Z,4.32
2019-02-20T18:41:41.996Z,4.32
2019-02-20T18:44:12.487Z,4.27
2019-02-20T18:46:42.812Z,4.21
2019-02-20T18:49:13.245Z,4.13
2019-02-20T18:51:43.990Z,4.06
2019-02-20T18:54:14.561Z,4.03
2019-02-20T18:56:44.888Z,4.02
2019-02-20T18:59:16.092Z,3.99
2019-02-20T19:01:46.934Z,3.97
2019-02-20T19:04:17.821Z,3.97
2019-02-20T19:06:48.136Z,3.95
2019-02-20T19:09:27.355Z,3.98
2019-02-20T19:12:16.955Z,4.07
2019-02-20T19:15:01.557Z,4.05
2019-02-20T19:18:19.922Z,4.03
2019-02-20T19:21:04.702Z,4.00
2019-02-20T19:24:14.905Z,3.95
2019-02-20T19:27:35.840Z,3.92
2019-02-20T19:30:46.212Z,3.89
2019-02-20T19:33:34.383Z,3.93
2019-02-20T19:36:34.869Z,3.91
2019-02-20T19:39:20.600Z,3.92
2019-02-20T19:42:21.567Z,3.95
2019-02-20T19:45:09.330Z,3.98
2019-02-20T19:47:53.230Z,3.99
2019-02-20T19:51:04.734Z,3.99
2019-02-20T19:54:12.871Z,3.99
2019-02-20T19:57:33.487Z,4.00
2019-02-20T20:01:00.323Z,4.00
2019-02-20T20:04:03.269Z,4.04
2019-02-20T20:06:57.766Z,4.04
2019-02-20T20:09:34.475Z,4.02
2019-02-20T20:12:58.551Z,3.99
2019-02-20T20:15:51.130Z,3.96
2019-02-20T20:19:06.284Z,3.96
2019-02-20T20:21:49.037Z,3.96
2019-02-20T20:24:33.825Z,3.97
2019-02-20T20:27:42.620Z,3.97
2019-02-20T20:30:46.329Z,3.96
2019-02-20T20:33:43.185Z,3.95
2019-02-20T20:36:39.328Z,3.93
2019-02-20T20:39:36.927Z,3.93
2019-02-20T20:42:43.268Z,3.90
2019-02-20T20:45:49.741Z,3.91
2019-02-20T20:48:30.599Z,3.85
2019-02-20T20:51:40.713Z,3.83
2019-02-20T20:54:50.052Z,3.82
2019-02-20T20:57:54.891Z,3.86
2019-02-20T21:01:03.865Z,3.88
2019-02-20T21:03:37.261Z,3.90
2019-02-20T21:06:44.553Z,3.93
2019-02-20T21:09:43.357Z,3.91
2019-02-20T21:13:03.632Z,3.89
2019-02-20T21:16:01.707Z,3.86
2019-02-20T21:19:21.598Z,3.81
2019-02-20T21:22:06.446Z,3.73
2019-02-20T21:25:10.996Z,3.61
2019-02-20T21:28:13.098Z,3.55
2019-02-20T21:31:20.865Z,3.54
2019-02-20T21:34:20.657Z,3.53
2019-02-20T21:37:27.978Z,3.47
2019-02-20T21:40:33.368Z,3.47
2019-02-20T21:43:34.699Z,3.47
2019-02-20T21:46:40.224Z,3.42
2019-02-20T21:49:52.250Z,3.42
2019-02-20T21:53:02.017Z,3.42
2019-02-20T21:55:52.572Z,3.44
2019-02-20T21:58:46.914Z,3.45
2019-02-20T22:01:42.900Z,3.47
2019-02-20T22:04:39.989Z,3.50
2019-02-20T22:07:53.945Z,3.47
2019-02-20T22:10:34.108Z,3.27
2019-02-20T22:13:37.918Z,3.09
2019-02-20T22:16:32.396Z,3.03
2019-02-20T22:19:10.923Z,2.94
2019-02-20T22:22:05.138Z,2.86
2019-02-20T22:25:10.482Z,2.83
2019-02-20T22:27:48.641Z,2.84
2019-02-20T22:30:41.146Z,2.88
2019-02-20T22:34:05.392Z,2.86
2019-02-20T22:37:03.338Z,2.85
2019-02-20T22:40:14.273Z,2.85
2019-02-20T22:43:37.159Z,2.87
2019-02-20T22:46:40.454Z,2.92
2019-02-20T22:49:33.494Z,2.94
2019-02-20T22:52:48.567Z,2.96
2019-02-20T22:55:59.945Z,2.98
2019-02-20T22:58:55.641Z,3.02
2019-02-20T23:02:05.124Z,3.01
2019-02-20T23:05:17.377Z,3.04
2019-02-20T23:08:09.320Z,3.07
2019-02-20T23:11:17.815Z,3.04
2019-02-20T23:14:26.987Z,3.08
2019-02-20T23:16:58.157Z,3.09
2019-02-20T23:19:28.340Z,3.08
2019-02-20T23:21:58.347Z,3.05
2019-02-20T23:24:28.359Z,3.08
2019-02-20T23:26:58.624Z,3.13
2019-02-20T23:29:28.738Z,3.15
2019-02-20T23:31:58.946Z,3.12
2019-02-20T23:34:31.159Z,3.11
2019-02-20T23:37:01.148Z,3.12
2019-02-20T23:39:31.152Z,3.13
2019-02-20T23:42:01.312Z,3.16
2019-02-20T23:44:31.658Z,3.18
2019-02-20T23:47:01.609Z,3.26
2019-02-20T23:49:31.779Z,3.32
2019-02-20T23:52:01.954Z,3.30
2019-02-20T23:54:32.346Z,3.25
2019-02-20T23:57:02.423Z,3.25
2019-02-20T23:59:33.150Z,3.26
